Airfield :
LOGIN :

Register | Disclaimer

   EN    FR    IT 

 










Legend :    VFR   Marginal VFR   IFR   Intensive IFR   Very Intensive IFR
Visi :
Ceiling :
>= 8 km
>= 3000ft
5 to 8 km
1000 to 3000 ft
1500m to 5 km
500 to 1000 ft
800 to 1500m
200 to 500 ft
< 800m
< 200 ft
Symbols :   Thunderstorms  Fog  Heavy snow  Heavy precipitations  Wind > 20 kt
SIGMETs :     Misc.  Thunderstorms  Icing  Turbulence  Mountain Waves  Volcanic Ashes







- Airport Elevation : 327 ft
- IATA code : BHX
- Download approach charts


EGBB - Birmingham

CURRENT METAR :
  • 211220Z 31004KT 200V360 9999 OVC018 13/09 Q1033

EXPIRED METARs :
  • 211150Z 28005KT 230V330 9999 OVC018 13/09 Q1033
  • 211120Z 28007KT 240V310 9999 BKN016 13/09 Q1033
  • 211050Z 27006KT 240V310 9999 BKN015 12/09 Q1033
  • 211020Z VRB03KT 9999 BKN014 12/09 Q1033
  • 210950Z 28007KT 250V320 9999 SCT013 12/09 Q1033
  • 210920Z 27007KT 240V300 9999 SCT015 12/09 Q1033

TAF TAF EGBB
Valid from the 21 at 12:00 until the 22 at 12:00 UTC


211057Z 2112/2212 23005KT 9999 SCT018
PROB30
TEMPO 2121/2203 8000
BECMG 2201/2204 BKN012
BECMG 2209/2212 BKN020
ATIS : +44 121 780 0910
No reported NOTAMs for that airfield.



MET'MAP, your aeronautical weather chart ! - Copyright ORBIFLY December 2007 - Disclaimer

ORBIFLY MET'MAP TEAM :

Programming & Development : Alexandra Zaïnal
Concept & Development : Baudouin d'Aumeries
Co-Development & Prog : Marc-Olivier Méhu
Technical & hardware support : Manuel Goepfert

Contact : metmap@orbifly.com




SOURCES & CREDITS :

   NOAA